sensor_id;sensor_type;location;lat;lon;timestamp;P1;durP1;ratioP1;P2;durP2;ratioP2
17382;SDS011;8809;51.892;8.384;2023-10-09T00:00:34;3.97;;;1.77;;
17382;SDS011;8809;51.892;8.384;2023-10-09T00:03:18;4.20;;;2.00;;
17382;SDS011;8809;51.892;8.384;2023-10-09T00:05:48;3.75;;;1.80;;
17382;SDS011;8809;51.892;8.384;2023-10-09T00:08:18;2.25;;;1.50;;
17382;SDS011;8809;51.892;8.384;2023-10-09T00:10:48;4.10;;;1.73;;
17382;SDS011;8809;51.892;8.384;2023-10-09T00:13:18;2.45;;;1.70;;
17382;SDS011;8809;51.892;8.384;2023-10-09T00:15:46;2.67;;;1.83;;
17382;SDS011;8809;51.892;8.384;2023-10-09T00:18:18;4.18;;;1.90;;
17382;SDS011;8809;51.892;8.384;2023-10-09T00:20:53;2.42;;;1.90;;
17382;SDS011;8809;51.892;8.384;2023-10-09T00:23:25;2.50;;;1.70;;
17382;SDS011;8809;51.892;8.384;2023-10-09T00:25:54;2.85;;;1.80;;
17382;SDS011;8809;51.892;8.384;2023-10-09T00:28:34;2.83;;;1.63;;
17382;SDS011;8809;51.892;8.384;2023-10-09T00:31:03;2.15;;;1.70;;
17382;SDS011;8809;51.892;8.384;2023-10-09T00:33:31;2.75;;;1.60;;
17382;SDS011;8809;51.892;8.384;2023-10-09T00:36:01;2.47;;;1.80;;
17382;SDS011;8809;51.892;8.384;2023-10-09T00:38:34;2.42;;;1.58;;
17382;SDS011;8809;51.892;8.384;2023-10-09T00:41:05;4.13;;;1.88;;
17382;SDS011;8809;51.892;8.384;2023-10-09T00:43:45;2.55;;;2.05;;
17382;SDS011;8809;51.892;8.384;2023-10-09T00:46:15;2.75;;;1.90;;
17382;SDS011;8809;51.892;8.384;2023-10-09T00:48:51;2.65;;;2.05;;
17382;SDS011;8809;51.892;8.384;2023-10-09T00:51:21;2.80;;;1.70;;
17382;SDS011;8809;51.892;8.384;2023-10-09T00:53:50;2.97;;;2.10;;
17382;SDS011;8809;51.892;8.384;2023-10-09T00:56:21;3.67;;;2.47;;
17382;SDS011;8809;51.892;8.384;2023-10-09T00:59:03;4.55;;;2.55;;
17382;SDS011;8809;51.892;8.384;2023-10-09T01:01:34;4.63;;;2.20;;
17382;SDS011;8809;51.892;8.384;2023-10-09T01:04:02;3.85;;;2.65;;
17382;SDS011;8809;51.892;8.384;2023-10-09T01:06:36;4.00;;;2.50;;
17382;SDS011;8809;51.892;8.384;2023-10-09T01:09:09;4.25;;;2.53;;
17382;SDS011;8809;51.892;8.384;2023-10-09T01:11:41;4.18;;;2.80;;
17382;SDS011;8809;51.892;8.384;2023-10-09T01:14:22;4.22;;;2.47;;
17382;SDS011;8809;51.892;8.384;2023-10-09T01:16:49;2.50;;;2.30;;
17382;SDS011;8809;51.892;8.384;2023-10-09T01:19:20;3.90;;;2.83;;
17382;SDS011;8809;51.892;8.384;2023-10-09T01:21:49;4.70;;;2.70;;
17382;SDS011;8809;51.892;8.384;2023-10-09T01:24:18;2.72;;;2.30;;
17382;SDS011;8809;51.892;8.384;2023-10-09T01:26:48;3.30;;;2.22;;
17382;SDS011;8809;51.892;8.384;2023-10-09T01:29:16;3.83;;;2.40;;
17382;SDS011;8809;51.892;8.384;2023-10-09T01:31:45;3.65;;;2.20;;
17382;SDS011;8809;51.892;8.384;2023-10-09T01:34:18;4.22;;;2.30;;
17382;SDS011;8809;51.892;8.384;2023-10-09T01:36:50;4.05;;;2.70;;
17382;SDS011;8809;51.892;8.384;2023-10-09T01:39:22;4.72;;;2.42;;
17382;SDS011;8809;51.892;8.384;2023-10-09T01:41:52;3.80;;;2.40;;
17382;SDS011;8809;51.892;8.384;2023-10-09T01:44:25;3.20;;;2.10;;
17382;SDS011;8809;51.892;8.384;2023-10-09T01:46:53;3.25;;;2.40;;
17382;SDS011;8809;51.892;8.384;2023-10-09T01:49:23;4.28;;;2.70;;
17382;SDS011;8809;51.892;8.384;2023-10-09T01:51:57;4.75;;;2.42;;
17382;SDS011;8809;51.892;8.384;2023-10-09T01:54:34;4.60;;;3.08;;
17382;SDS011;8809;51.892;8.384;2023-10-09T01:57:06;5.80;;;3.15;;
17382;SDS011;8809;51.892;8.384;2023-10-09T01:59:38;3.88;;;2.88;;
17382;SDS011;8809;51.892;8.384;2023-10-09T02:02:09;3.58;;;2.50;;
17382;SDS011;8809;51.892;8.384;2023-10-09T02:04:52;6.45;;;3.00;;
17382;SDS011;8809;51.892;8.384;2023-10-09T02:07:29;4.95;;;2.70;;
17382;SDS011;8809;51.892;8.384;2023-10-09T02:10:07;4.07;;;2.58;;
17382;SDS011;8809;51.892;8.384;2023-10-09T02:12:47;3.50;;;2.53;;
17382;SDS011;8809;51.892;8.384;2023-10-09T02:15:17;4.07;;;2.55;;
17382;SDS011;8809;51.892;8.384;2023-10-09T02:18:04;3.50;;;2.47;;
17382;SDS011;8809;51.892;8.384;2023-10-09T02:20:42;3.58;;;2.70;;
17382;SDS011;8809;51.892;8.384;2023-10-09T02:23:10;3.28;;;2.38;;
17382;SDS011;8809;51.892;8.384;2023-10-09T02:25:40;5.80;;;3.33;;
17382;SDS011;8809;51.892;8.384;2023-10-09T02:28:08;3.17;;;2.45;;
17382;SDS011;8809;51.892;8.384;2023-10-09T02:30:43;3.50;;;2.83;;
17382;SDS011;8809;51.892;8.384;2023-10-09T02:33:15;3.78;;;2.70;;
17382;SDS011;8809;51.892;8.384;2023-10-09T02:35:52;3.20;;;2.30;;
17382;SDS011;8809;51.892;8.384;2023-10-09T02:38:20;3.40;;;2.45;;
17382;SDS011;8809;51.892;8.384;2023-10-09T02:40:50;3.67;;;2.30;;
17382;SDS011;8809;51.892;8.384;2023-10-09T02:43:43;3.80;;;2.80;;
17382;SDS011;8809;51.892;8.384;2023-10-09T02:46:12;4.13;;;3.00;;
17382;SDS011;8809;51.892;8.384;2023-10-09T02:48:40;4.43;;;2.90;;
17382;SDS011;8809;51.892;8.384;2023-10-09T02:51:12;5.18;;;3.08;;
17382;SDS011;8809;51.892;8.384;2023-10-09T02:53:47;5.57;;;3.03;;
17382;SDS011;8809;51.892;8.384;2023-10-09T02:56:18;4.07;;;2.80;;
17382;SDS011;8809;51.892;8.384;2023-10-09T02:58:49;5.05;;;3.30;;
17382;SDS011;8809;51.892;8.384;2023-10-09T03:01:17;4.57;;;2.92;;
17382;SDS011;8809;51.892;8.384;2023-10-09T03:03:44;3.28;;;2.53;;
17382;SDS011;8809;51.892;8.384;2023-10-09T03:06:13;4.93;;;3.20;;
17382;SDS011;8809;51.892;8.384;2023-10-09T03:08:44;5.18;;;3.10;;
17382;SDS011;8809;51.892;8.384;2023-10-09T03:11:13;7.10;;;4.05;;
17382;SDS011;8809;51.892;8.384;2023-10-09T03:13:42;5.85;;;3.50;;
17382;SDS011;8809;51.892;8.384;2023-10-09T03:16:10;4.47;;;3.17;;
17382;SDS011;8809;51.892;8.384;2023-10-09T03:18:45;4.40;;;3.03;;
17382;SDS011;8809;51.892;8.384;2023-10-09T03:21:13;4.53;;;3.30;;
17382;SDS011;8809;51.892;8.384;2023-10-09T03:23:43;4.25;;;3.05;;
17382;SDS011;8809;51.892;8.384;2023-10-09T03:26:14;4.82;;;3.40;;
17382;SDS011;8809;51.892;8.384;2023-10-09T03:28:44;5.03;;;3.58;;
17382;SDS011;8809;51.892;8.384;2023-10-09T03:31:11;4.78;;;3.13;;
17382;SDS011;8809;51.892;8.384;2023-10-09T03:33:38;5.90;;;3.70;;
17382;SDS011;8809;51.892;8.384;2023-10-09T03:36:06;4.32;;;3.08;;
17382;SDS011;8809;51.892;8.384;2023-10-09T03:38:35;4.20;;;3.13;;
17382;SDS011;8809;51.892;8.384;2023-10-09T03:41:02;4.15;;;3.30;;
17382;SDS011;8809;51.892;8.384;2023-10-09T03:43:33;5.40;;;3.85;;
17382;SDS011;8809;51.892;8.384;2023-10-09T03:46:04;6.15;;;4.63;;
17382;SDS011;8809;51.892;8.384;2023-10-09T03:48:40;4.10;;;3.17;;
17382;SDS011;8809;51.892;8.384;2023-10-09T03:51:09;5.85;;;3.83;;
17382;SDS011;8809;51.892;8.384;2023-10-09T03:53:38;4.65;;;3.40;;
17382;SDS011;8809;51.892;8.384;2023-10-09T03:56:06;4.63;;;3.72;;
17382;SDS011;8809;51.892;8.384;2023-10-09T03:58:38;5.38;;;3.42;;
17382;SDS011;8809;51.892;8.384;2023-10-09T04:01:09;6.80;;;4.47;;
17382;SDS011;8809;51.892;8.384;2023-10-09T04:03:43;6.25;;;3.53;;
17382;SDS011;8809;51.892;8.384;2023-10-09T04:06:10;6.88;;;4.28;;
17382;SDS011;8809;51.892;8.384;2023-10-09T04:08:38;7.55;;;4.80;;
17382;SDS011;8809;51.892;8.384;2023-10-09T04:11:12;8.05;;;4.82;;
17382;SDS011;8809;51.892;8.384;2023-10-09T04:13:43;8.35;;;5.47;;
17382;SDS011;8809;51.892;8.384;2023-10-09T04:16:13;6.93;;;4.10;;
17382;SDS011;8809;51.892;8.384;2023-10-09T04:18:58;7.03;;;4.43;;
17382;SDS011;8809;51.892;8.384;2023-10-09T04:21:30;5.75;;;4.28;;
17382;SDS011;8809;51.892;8.384;2023-10-09T04:24:01;7.45;;;4.50;;
17382;SDS011;8809;51.892;8.384;2023-10-09T04:26:46;6.97;;;4.47;;
17382;SDS011;8809;51.892;8.384;2023-10-09T04:29:14;6.88;;;4.43;;
17382;SDS011;8809;51.892;8.384;2023-10-09T04:31:45;5.63;;;4.10;;
17382;SDS011;8809;51.892;8.384;2023-10-09T04:34:17;6.10;;;4.18;;
17382;SDS011;8809;51.892;8.384;2023-10-09T04:36:54;6.88;;;4.50;;
17382;SDS011;8809;51.892;8.384;2023-10-09T04:39:26;6.45;;;4.68;;
17382;SDS011;8809;51.892;8.384;2023-10-09T04:42:12;4.32;;;3.38;;
17382;SDS011;8809;51.892;8.384;2023-10-09T04:45:08;6.53;;;4.43;;
17382;SDS011;8809;51.892;8.384;2023-10-09T04:48:03;5.25;;;3.67;;
17382;SDS011;8809;51.892;8.384;2023-10-09T04:50:34;5.68;;;3.92;;
17382;SDS011;8809;51.892;8.384;2023-10-09T04:53:32;6.60;;;4.78;;
17382;SDS011;8809;51.892;8.384;2023-10-09T04:56:09;6.85;;;4.07;;
17382;SDS011;8809;51.892;8.384;2023-10-09T04:58:41;7.18;;;4.47;;
17382;SDS011;8809;51.892;8.384;2023-10-09T05:01:09;5.80;;;4.13;;
17382;SDS011;8809;51.892;8.384;2023-10-09T05:03:42;6.45;;;5.00;;
17382;SDS011;8809;51.892;8.384;2023-10-09T05:06:08;8.98;;;5.72;;
17382;SDS011;8809;51.892;8.384;2023-10-09T05:08:47;9.38;;;6.20;;
17382;SDS011;8809;51.892;8.384;2023-10-09T05:11:14;9.73;;;6.20;;
17382;SDS011;8809;51.892;8.384;2023-10-09T05:14:00;16.90;;;9.50;;
17382;SDS011;8809;51.892;8.384;2023-10-09T05:16:44;13.57;;;8.77;;
17382;SDS011;8809;51.892;8.384;2023-10-09T05:19:22;13.05;;;8.23;;
17382;SDS011;8809;51.892;8.384;2023-10-09T05:22:03;12.35;;;7.60;;
17382;SDS011;8809;51.892;8.384;2023-10-09T05:24:42;9.40;;;6.72;;
17382;SDS011;8809;51.892;8.384;2023-10-09T05:27:09;8.70;;;6.03;;
17382;SDS011;8809;51.892;8.384;2023-10-09T05:30:06;8.38;;;5.53;;
17382;SDS011;8809;51.892;8.384;2023-10-09T05:32:50;7.25;;;5.00;;
17382;SDS011;8809;51.892;8.384;2023-10-09T05:35:22;7.15;;;5.13;;
17382;SDS011;8809;51.892;8.384;2023-10-09T05:38:06;5.85;;;4.50;;
17382;SDS011;8809;51.892;8.384;2023-10-09T05:40:40;6.07;;;3.90;;
17382;SDS011;8809;51.892;8.384;2023-10-09T05:43:09;6.00;;;4.28;;
17382;SDS011;8809;51.892;8.384;2023-10-09T05:45:56;5.03;;;3.83;;
17382;SDS011;8809;51.892;8.384;2023-10-09T05:48:33;4.45;;;3.40;;
17382;SDS011;8809;51.892;8.384;2023-10-09T05:51:15;5.40;;;4.18;;
17382;SDS011;8809;51.892;8.384;2023-10-09T05:53:56;4.47;;;3.20;;
17382;SDS011;8809;51.892;8.384;2023-10-09T05:56:51;3.92;;;2.90;;
17382;SDS011;8809;51.892;8.384;2023-10-09T05:59:56;3.38;;;2.53;;
17382;SDS011;8809;51.892;8.384;2023-10-09T06:02:40;3.58;;;2.78;;
17382;SDS011;8809;51.892;8.384;2023-10-09T06:05:24;3.60;;;2.80;;
17382;SDS011;8809;51.892;8.384;2023-10-09T06:08:07;3.38;;;2.47;;
17382;SDS011;8809;51.892;8.384;2023-10-09T06:10:38;4.45;;;2.95;;
17382;SDS011;8809;51.892;8.384;2023-10-09T06:13:09;4.07;;;3.13;;
17382;SDS011;8809;51.892;8.384;2023-10-09T06:16:04;2.75;;;2.40;;
17382;SDS011;8809;51.892;8.384;2023-10-09T06:18:51;4.78;;;3.60;;
17382;SDS011;8809;51.892;8.384;2023-10-09T06:21:33;5.82;;;3.88;;
17382;SDS011;8809;51.892;8.384;2023-10-09T06:24:14;6.63;;;4.50;;
17382;SDS011;8809;51.892;8.384;2023-10-09T06:26:42;8.50;;;5.85;;
17382;SDS011;8809;51.892;8.384;2023-10-09T06:29:39;19.75;;;12.82;;
17382;SDS011;8809;51.892;8.384;2023-10-09T06:32:17;30.98;;;17.63;;
17382;SDS011;8809;51.892;8.384;2023-10-09T06:35:00;29.85;;;18.13;;
17382;SDS011;8809;51.892;8.384;2023-10-09T06:37:47;28.02;;;17.73;;
17382;SDS011;8809;51.892;8.384;2023-10-09T06:40:33;24.48;;;15.57;;
17382;SDS011;8809;51.892;8.384;2023-10-09T06:43:18;31.15;;;16.58;;
17382;SDS011;8809;51.892;8.384;2023-10-09T06:45:54;22.33;;;14.55;;
17382;SDS011;8809;51.892;8.384;2023-10-09T06:48:23;22.42;;;14.38;;
17382;SDS011;8809;51.892;8.384;2023-10-09T06:51:12;24.13;;;15.07;;
17382;SDS011;8809;51.892;8.384;2023-10-09T06:54:02;28.77;;;15.80;;
17382;SDS011;8809;51.892;8.384;2023-10-09T06:56:34;28.17;;;16.77;;
17382;SDS011;8809;51.892;8.384;2023-10-09T06:59:19;26.70;;;15.95;;
17382;SDS011;8809;51.892;8.384;2023-10-09T07:01:51;22.52;;;13.18;;
17382;SDS011;8809;51.892;8.384;2023-10-09T07:04:32;26.23;;;15.25;;
17382;SDS011;8809;51.892;8.384;2023-10-09T07:07:12;29.73;;;15.65;;
17382;SDS011;8809;51.892;8.384;2023-10-09T07:09:42;23.70;;;14.52;;
17382;SDS011;8809;51.892;8.384;2023-10-09T07:12:08;23.45;;;15.38;;
17382;SDS011;8809;51.892;8.384;2023-10-09T07:14:39;28.33;;;15.30;;
17382;SDS011;8809;51.892;8.384;2023-10-09T07:17:26;25.80;;;16.20;;
17382;SDS011;8809;51.892;8.384;2023-10-09T07:20:21;25.30;;;15.13;;
17382;SDS011;8809;51.892;8.384;2023-10-09T07:23:04;25.85;;;15.65;;
17382;SDS011;8809;51.892;8.384;2023-10-09T07:25:41;18.85;;;12.95;;
17382;SDS011;8809;51.892;8.384;2023-10-09T07:28:21;22.35;;;15.00;;
17382;SDS011;8809;51.892;8.384;2023-10-09T07:31:16;21.23;;;13.65;;
17382;SDS011;8809;51.892;8.384;2023-10-09T07:33:52;18.50;;;13.02;;
17382;SDS011;8809;51.892;8.384;2023-10-09T07:36:34;30.75;;;16.42;;
17382;SDS011;8809;51.892;8.384;2023-10-09T07:39:01;24.63;;;15.27;;
17382;SDS011;8809;51.892;8.384;2023-10-09T07:41:39;19.25;;;13.13;;
17382;SDS011;8809;51.892;8.384;2023-10-09T07:44:10;17.73;;;11.98;;
17382;SDS011;8809;51.892;8.384;2023-10-09T07:47:01;16.42;;;10.70;;
17382;SDS011;8809;51.892;8.384;2023-10-09T07:49:44;26.70;;;16.13;;
17382;SDS011;8809;51.892;8.384;2023-10-09T07:52:19;26.90;;;16.20;;
17382;SDS011;8809;51.892;8.384;2023-10-09T07:54:48;23.70;;;14.70;;
17382;SDS011;8809;51.892;8.384;2023-10-09T07:57:30;24.02;;;15.25;;
17382;SDS011;8809;51.892;8.384;2023-10-09T08:00:05;27.50;;;15.55;;
17382;SDS011;8809;51.892;8.384;2023-10-09T08:03:00;25.77;;;16.25;;
17382;SDS011;8809;51.892;8.384;2023-10-09T08:05:35;21.60;;;13.63;;
17382;SDS011;8809;51.892;8.384;2023-10-09T08:08:11;23.30;;;13.70;;
17382;SDS011;8809;51.892;8.384;2023-10-09T08:11:06;20.45;;;13.75;;
17382;SDS011;8809;51.892;8.384;2023-10-09T08:13:52;25.60;;;15.35;;
17382;SDS011;8809;51.892;8.384;2023-10-09T08:16:28;25.77;;;14.95;;
17382;SDS011;8809;51.892;8.384;2023-10-09T08:19:02;23.58;;;14.23;;
17382;SDS011;8809;51.892;8.384;2023-10-09T08:21:52;20.02;;;14.20;;
17382;SDS011;8809;51.892;8.384;2023-10-09T08:24:44;25.25;;;14.95;;
17382;SDS011;8809;51.892;8.384;2023-10-09T08:27:21;22.02;;;14.20;;
17382;SDS011;8809;51.892;8.384;2023-10-09T08:30:12;25.33;;;14.60;;
17382;SDS011;8809;51.892;8.384;2023-10-09T08:32:54;23.65;;;13.80;;
17382;SDS011;8809;51.892;8.384;2023-10-09T08:35:36;19.73;;;12.75;;
17382;SDS011;8809;51.892;8.384;2023-10-09T08:38:14;23.23;;;14.40;;
17382;SDS011;8809;51.892;8.384;2023-10-09T08:40:50;26.63;;;13.52;;
17382;SDS011;8809;51.892;8.384;2023-10-09T08:43:23;25.00;;;14.20;;
17382;SDS011;8809;51.892;8.384;2023-10-09T08:45:52;21.98;;;12.52;;
17382;SDS011;8809;51.892;8.384;2023-10-09T08:48:26;27.65;;;16.35;;
17382;SDS011;8809;51.892;8.384;2023-10-09T08:50:55;22.75;;;13.57;;
17382;SDS011;8809;51.892;8.384;2023-10-09T08:53:23;24.75;;;14.63;;
17382;SDS011;8809;51.892;8.384;2023-10-09T08:55:54;19.88;;;13.18;;
17382;SDS011;8809;51.892;8.384;2023-10-09T08:58:22;23.75;;;14.55;;
17382;SDS011;8809;51.892;8.384;2023-10-09T09:00:56;24.67;;;15.32;;
17382;SDS011;8809;51.892;8.384;2023-10-09T09:03:25;24.77;;;15.07;;
17382;SDS011;8809;51.892;8.384;2023-10-09T09:05:57;24.15;;;15.13;;
17382;SDS011;8809;51.892;8.384;2023-10-09T09:08:29;27.13;;;14.63;;
17382;SDS011;8809;51.892;8.384;2023-10-09T09:10:58;23.35;;;13.85;;
17382;SDS011;8809;51.892;8.384;2023-10-09T09:13:37;20.83;;;13.48;;
17382;SDS011;8809;51.892;8.384;2023-10-09T09:16:14;18.33;;;11.75;;
17382;SDS011;8809;51.892;8.384;2023-10-09T09:18:52;22.38;;;14.30;;
17382;SDS011;8809;51.892;8.384;2023-10-09T09:21:29;23.13;;;13.65;;
17382;SDS011;8809;51.892;8.384;2023-10-09T09:24:03;24.90;;;14.63;;
17382;SDS011;8809;51.892;8.384;2023-10-09T09:26:42;20.08;;;13.73;;
17382;SDS011;8809;51.892;8.384;2023-10-09T09:29:24;21.13;;;13.10;;
17382;SDS011;8809;51.892;8.384;2023-10-09T09:32:05;25.45;;;14.38;;
17382;SDS011;8809;51.892;8.384;2023-10-09T09:34:43;17.70;;;12.00;;
17382;SDS011;8809;51.892;8.384;2023-10-09T09:37:18;17.30;;;11.73;;
17382;SDS011;8809;51.892;8.384;2023-10-09T09:39:46;24.92;;;14.63;;
17382;SDS011;8809;51.892;8.384;2023-10-09T09:42:18;19.23;;;12.93;;
17382;SDS011;8809;51.892;8.384;2023-10-09T09:44:50;17.38;;;12.15;;
17382;SDS011;8809;51.892;8.384;2023-10-09T09:47:18;18.35;;;12.57;;
17382;SDS011;8809;51.892;8.384;2023-10-09T09:49:52;16.40;;;11.05;;
17382;SDS011;8809;51.892;8.384;2023-10-09T09:52:25;17.25;;;10.23;;
17382;SDS011;8809;51.892;8.384;2023-10-09T09:54:54;19.45;;;13.18;;
17382;SDS011;8809;51.892;8.384;2023-10-09T09:57:24;20.42;;;13.13;;
17382;SDS011;8809;51.892;8.384;2023-10-09T09:59:54;17.50;;;11.55;;
17382;SDS011;8809;51.892;8.384;2023-10-09T10:02:27;17.88;;;11.18;;
17382;SDS011;8809;51.892;8.384;2023-10-09T10:04:59;18.42;;;11.90;;
17382;SDS011;8809;51.892;8.384;2023-10-09T10:07:32;17.15;;;11.23;;
17382;SDS011;8809;51.892;8.384;2023-10-09T10:13:16;20.00;;;12.20;;
17382;SDS011;8809;51.892;8.384;2023-10-09T10:18:53;22.05;;;12.27;;
17382;SDS011;8809;51.892;8.384;2023-10-09T10:21:25;20.27;;;12.45;;
17382;SDS011;8809;51.892;8.384;2023-10-09T10:27:20;19.77;;;13.32;;
17382;SDS011;8809;51.892;8.384;2023-10-09T10:32:59;16.38;;;11.77;;
17382;SDS011;8809;51.892;8.384;2023-10-09T10:35:34;17.15;;;10.90;;
17382;SDS011;8809;51.892;8.384;2023-10-09T10:46:03;22.30;;;13.02;;
17382;SDS011;8809;51.892;8.384;2023-10-09T10:48:39;22.58;;;14.70;;
17382;SDS011;8809;51.892;8.384;2023-10-09T10:51:12;22.35;;;13.75;;
17382;SDS011;8809;51.892;8.384;2023-10-09T10:53:49;19.13;;;13.27;;
17382;SDS011;8809;51.892;8.384;2023-10-09T10:56:22;21.38;;;13.15;;
17382;SDS011;8809;51.892;8.384;2023-10-09T10:59:00;20.27;;;12.02;;
17382;SDS011;8809;51.892;8.384;2023-10-09T11:01:41;17.42;;;11.60;;
17382;SDS011;8809;51.892;8.384;2023-10-09T11:04:19;19.52;;;12.50;;
17382;SDS011;8809;51.892;8.384;2023-10-09T11:07:04;20.85;;;14.20;;
17382;SDS011;8809;51.892;8.384;2023-10-09T11:09:45;18.80;;;13.45;;
17382;SDS011;8809;51.892;8.384;2023-10-09T11:12:44;20.33;;;14.05;;
17382;SDS011;8809;51.892;8.384;2023-10-09T11:15:32;22.88;;;13.40;;
17382;SDS011;8809;51.892;8.384;2023-10-09T11:18:15;19.10;;;11.98;;
17382;SDS011;8809;51.892;8.384;2023-10-09T11:20:45;21.33;;;13.57;;
17382;SDS011;8809;51.892;8.384;2023-10-09T11:23:24;19.17;;;12.48;;
17382;SDS011;8809;51.892;8.384;2023-10-09T11:26:03;17.73;;;11.55;;
17382;SDS011;8809;51.892;8.384;2023-10-09T11:28:46;24.55;;;12.60;;
17382;SDS011;8809;51.892;8.384;2023-10-09T11:31:38;24.65;;;13.45;;
17382;SDS011;8809;51.892;8.384;2023-10-09T11:34:08;22.45;;;14.23;;
17382;SDS011;8809;51.892;8.384;2023-10-09T11:36:55;18.25;;;14.07;;
17382;SDS011;8809;51.892;8.384;2023-10-09T11:39:27;24.63;;;16.48;;
17382;SDS011;8809;51.892;8.384;2023-10-09T11:42:03;21.13;;;16.00;;
17382;SDS011;8809;51.892;8.384;2023-10-09T11:44:37;21.73;;;15.15;;
17382;SDS011;8809;51.892;8.384;2023-10-09T11:47:10;25.08;;;17.35;;
17382;SDS011;8809;51.892;8.384;2023-10-09T11:49:52;22.67;;;15.75;;
17382;SDS011;8809;51.892;8.384;2023-10-09T11:52:41;20.30;;;14.77;;
17382;SDS011;8809;51.892;8.384;2023-10-09T11:55:22;25.35;;;14.45;;
17382;SDS011;8809;51.892;8.384;2023-10-09T11:57:50;20.00;;;15.07;;
17382;SDS011;8809;51.892;8.384;2023-10-09T12:00:17;22.77;;;15.27;;
17382;SDS011;8809;51.892;8.384;2023-10-09T12:02:54;22.80;;;15.27;;
17382;SDS011;8809;51.892;8.384;2023-10-09T12:05:31;22.90;;;15.85;;
17382;SDS011;8809;51.892;8.384;2023-10-09T12:07:59;19.50;;;14.80;;
17382;SDS011;8809;51.892;8.384;2023-10-09T12:10:27;21.77;;;14.02;;
17382;SDS011;8809;51.892;8.384;2023-10-09T12:12:55;17.80;;;12.73;;
17382;SDS011;8809;51.892;8.384;2023-10-09T12:15:24;20.08;;;13.85;;
17382;SDS011;8809;51.892;8.384;2023-10-09T12:18:02;18.67;;;13.15;;
17382;SDS011;8809;51.892;8.384;2023-10-09T12:20:34;19.92;;;14.32;;
17382;SDS011;8809;51.892;8.384;2023-10-09T12:23:02;24.02;;;18.00;;
17382;SDS011;8809;51.892;8.384;2023-10-09T12:25:31;23.13;;;16.73;;
17382;SDS011;8809;51.892;8.384;2023-10-09T12:27:59;24.08;;;16.38;;
17382;SDS011;8809;51.892;8.384;2023-10-09T12:30:27;23.00;;;15.32;;
17382;SDS011;8809;51.892;8.384;2023-10-09T12:32:55;23.27;;;15.73;;
17382;SDS011;8809;51.892;8.384;2023-10-09T12:35:23;22.75;;;15.02;;
17382;SDS011;8809;51.892;8.384;2023-10-09T12:37:52;22.17;;;15.98;;
17382;SDS011;8809;51.892;8.384;2023-10-09T12:40:20;21.83;;;14.80;;
17382;SDS011;8809;51.892;8.384;2023-10-09T12:42:54;22.88;;;14.00;;
17382;SDS011;8809;51.892;8.384;2023-10-09T12:45:24;27.50;;;16.17;;
17382;SDS011;8809;51.892;8.384;2023-10-09T12:47:53;21.13;;;14.30;;
17382;SDS011;8809;51.892;8.384;2023-10-09T12:50:24;30.17;;;17.48;;
17382;SDS011;8809;51.892;8.384;2023-10-09T12:52:58;23.52;;;16.00;;
17382;SDS011;8809;51.892;8.384;2023-10-09T12:55:34;23.42;;;15.02;;
17382;SDS011;8809;51.892;8.384;2023-10-09T12:58:05;23.33;;;15.02;;
17382;SDS011;8809;51.892;8.384;2023-10-09T13:00:34;21.48;;;13.98;;
17382;SDS011;8809;51.892;8.384;2023-10-09T13:03:09;21.92;;;14.25;;
17382;SDS011;8809;51.892;8.384;2023-10-09T13:05:43;24.77;;;15.60;;
17382;SDS011;8809;51.892;8.384;2023-10-09T13:08:19;23.00;;;16.25;;
17382;SDS011;8809;51.892;8.384;2023-10-09T13:10:51;23.85;;;14.32;;
17382;SDS011;8809;51.892;8.384;2023-10-09T13:13:26;24.92;;;14.80;;
17382;SDS011;8809;51.892;8.384;2023-10-09T13:16:05;22.42;;;14.50;;
17382;SDS011;8809;51.892;8.384;2023-10-09T13:18:34;22.42;;;14.27;;
17382;SDS011;8809;51.892;8.384;2023-10-09T13:21:02;18.38;;;13.07;;
17382;SDS011;8809;51.892;8.384;2023-10-09T13:23:31;18.45;;;12.57;;
17382;SDS011;8809;51.892;8.384;2023-10-09T13:26:05;27.50;;;16.52;;
17382;SDS011;8809;51.892;8.384;2023-10-09T13:28:44;22.08;;;15.43;;
17382;SDS011;8809;51.892;8.384;2023-10-09T13:31:12;23.30;;;15.23;;
17382;SDS011;8809;51.892;8.384;2023-10-09T13:33:40;19.13;;;13.63;;
17382;SDS011;8809;51.892;8.384;2023-10-09T13:36:08;17.95;;;12.50;;
17382;SDS011;8809;51.892;8.384;2023-10-09T13:38:44;17.73;;;11.43;;
17382;SDS011;8809;51.892;8.384;2023-10-09T13:41:12;16.25;;;9.98;;
17382;SDS011;8809;51.892;8.384;2023-10-09T13:43:40;20.95;;;12.85;;
17382;SDS011;8809;51.892;8.384;2023-10-09T13:46:08;19.67;;;12.25;;
17382;SDS011;8809;51.892;8.384;2023-10-09T13:48:37;27.00;;;15.73;;
17382;SDS011;8809;51.892;8.384;2023-10-09T13:51:07;20.10;;;13.07;;
17382;SDS011;8809;51.892;8.384;2023-10-09T13:53:40;23.10;;;15.43;;
17382;SDS011;8809;51.892;8.384;2023-10-09T13:56:16;21.08;;;13.55;;
17382;SDS011;8809;51.892;8.384;2023-10-09T13:58:45;17.90;;;13.10;;
17382;SDS011;8809;51.892;8.384;2023-10-09T14:01:13;22.88;;;11.88;;
17382;SDS011;8809;51.892;8.384;2023-10-09T14:03:55;19.65;;;11.27;;
17382;SDS011;8809;51.892;8.384;2023-10-09T14:06:22;21.90;;;13.30;;
17382;SDS011;8809;51.892;8.384;2023-10-09T14:08:57;17.90;;;11.45;;
17382;SDS011;8809;51.892;8.384;2023-10-09T14:11:26;31.35;;;13.25;;
17382;SDS011;8809;51.892;8.384;2023-10-09T14:13:53;20.58;;;12.23;;
17382;SDS011;8809;51.892;8.384;2023-10-09T14:16:20;21.52;;;11.90;;
17382;SDS011;8809;51.892;8.384;2023-10-09T14:18:53;18.27;;;10.93;;
17382;SDS011;8809;51.892;8.384;2023-10-09T14:21:25;18.90;;;12.48;;
17382;SDS011;8809;51.892;8.384;2023-10-09T14:23:53;15.23;;;10.95;;
17382;SDS011;8809;51.892;8.384;2023-10-09T14:26:24;24.10;;;14.50;;
17382;SDS011;8809;51.892;8.384;2023-10-09T14:28:53;21.25;;;13.48;;
17382;SDS011;8809;51.892;8.384;2023-10-09T14:31:22;21.13;;;12.20;;
17382;SDS011;8809;51.892;8.384;2023-10-09T14:33:53;23.20;;;11.10;;
17382;SDS011;8809;51.892;8.384;2023-10-09T14:36:21;18.33;;;12.48;;
17382;SDS011;8809;51.892;8.384;2023-10-09T14:38:50;20.17;;;13.90;;
17382;SDS011;8809;51.892;8.384;2023-10-09T14:41:20;20.50;;;12.50;;
17382;SDS011;8809;51.892;8.384;2023-10-09T14:43:49;18.08;;;12.55;;
17382;SDS011;8809;51.892;8.384;2023-10-09T14:46:19;19.65;;;12.30;;
17382;SDS011;8809;51.892;8.384;2023-10-09T14:48:51;15.60;;;11.13;;
17382;SDS011;8809;51.892;8.384;2023-10-09T14:51:19;19.35;;;11.38;;
17382;SDS011;8809;51.892;8.384;2023-10-09T14:53:55;15.15;;;10.60;;
17382;SDS011;8809;51.892;8.384;2023-10-09T14:56:27;15.05;;;10.02;;
17382;SDS011;8809;51.892;8.384;2023-10-09T14:58:55;12.80;;;9.35;;
17382;SDS011;8809;51.892;8.384;2023-10-09T15:01:26;12.93;;;8.88;;
17382;SDS011;8809;51.892;8.384;2023-10-09T15:03:56;17.30;;;10.32;;
17382;SDS011;8809;51.892;8.384;2023-10-09T15:06:25;17.95;;;10.70;;
17382;SDS011;8809;51.892;8.384;2023-10-09T15:08:55;15.95;;;11.20;;
17382;SDS011;8809;51.892;8.384;2023-10-09T15:11:25;20.92;;;13.45;;
17382;SDS011;8809;51.892;8.384;2023-10-09T15:13:54;18.10;;;11.30;;
17382;SDS011;8809;51.892;8.384;2023-10-09T15:16:23;19.77;;;12.13;;
17382;SDS011;8809;51.892;8.384;2023-10-09T15:18:54;17.83;;;11.27;;
17382;SDS011;8809;51.892;8.384;2023-10-09T15:21:22;19.75;;;12.63;;
17382;SDS011;8809;51.892;8.384;2023-10-09T15:23:52;14.63;;;10.38;;
17382;SDS011;8809;51.892;8.384;2023-10-09T15:26:19;15.85;;;10.70;;
17382;SDS011;8809;51.892;8.384;2023-10-09T15:28:48;22.60;;;14.25;;
17382;SDS011;8809;51.892;8.384;2023-10-09T15:31:16;22.20;;;12.68;;
17382;SDS011;8809;51.892;8.384;2023-10-09T15:33:44;17.80;;;11.70;;
17382;SDS011;8809;51.892;8.384;2023-10-09T15:36:14;19.00;;;12.48;;
17382;SDS011;8809;51.892;8.384;2023-10-09T15:38:45;18.02;;;11.18;;
17382;SDS011;8809;51.892;8.384;2023-10-09T15:41:13;17.05;;;12.20;;
17382;SDS011;8809;51.892;8.384;2023-10-09T15:43:40;20.00;;;13.07;;
17382;SDS011;8809;51.892;8.384;2023-10-09T15:46:12;15.13;;;10.88;;
17382;SDS011;8809;51.892;8.384;2023-10-09T15:48:43;21.55;;;12.95;;